createdAt,value
2022-10-02T00:01:16.672Z,23.8
2022-10-02T00:06:39.256Z,23.8
2022-10-02T00:12:21.809Z,23.7
2022-10-02T00:18:00.169Z,23.7
2022-10-02T00:23:37.041Z,23.7
2022-10-02T00:28:58.890Z,23.7
2022-10-02T00:34:22.004Z,23.7
2022-10-02T00:39:58.812Z,23.6
2022-10-02T00:45:34.892Z,23.6
2022-10-02T00:51:12.310Z,23.6
2022-10-02T00:56:33.325Z,23.6
2022-10-02T01:02:09.934Z,23.6
2022-10-02T01:07:47.528Z,23.6
2022-10-02T01:12:53.628Z,23.6
2022-10-02T01:18:30.719Z,23.6
2022-10-02T01:24:08.202Z,23.6
2022-10-02T01:29:30.574Z,23.6
2022-10-02T01:35:07.070Z,23.5
2022-10-02T01:40:44.225Z,23.5
2022-10-02T01:46:05.548Z,23.5
2022-10-02T01:51:43.209Z,23.5
2022-10-02T01:57:21.218Z,23.5
2022-10-02T02:02:59.117Z,23.5
2022-10-02T02:08:37.022Z,23.5
2022-10-02T02:13:59.051Z,23.5
2022-10-02T02:19:36.643Z,23.5
2022-10-02T02:24:58.020Z,23.5
2022-10-02T02:30:21.415Z,23.5
2022-10-02T02:35:57.875Z,23.4
2022-10-02T02:41:34.075Z,23.4
2022-10-02T02:47:15.130Z,23.5
2022-10-02T02:52:52.154Z,23.4
2022-10-02T02:58:35.474Z,23.4
2022-10-02T03:04:13.932Z,23.4
2022-10-02T03:09:51.071Z,23.4
2022-10-02T03:15:27.789Z,23.4
2022-10-02T03:21:05.918Z,23.4
2022-10-02T03:26:43.231Z,23.4
2022-10-02T03:32:49.376Z,23.4
2022-10-02T03:38:26.791Z,23.4
2022-10-02T03:44:33.085Z,23.4
2022-10-02T03:50:36.481Z,23.4
2022-10-02T03:55:59.137Z,23.4
2022-10-02T04:06:42.237Z,23.4
2022-10-02T04:11:53.842Z,23.3
2022-10-02T04:16:59.842Z,23.4
2022-10-02T04:22:05.848Z,23.4
2022-10-02T04:27:12.925Z,23.4
2022-10-02T04:32:19.344Z,23.4
2022-10-02T04:37:10.162Z,23.4
2022-10-02T04:42:37.652Z,23.4
2022-10-02T04:48:15.075Z,23.3
2022-10-02T04:53:51.158Z,23.3
2022-10-02T04:59:29.052Z,23.3
2022-10-02T05:04:53.474Z,23.3
2022-10-02T05:10:35.282Z,23.3
2022-10-02T05:16:12.724Z,23.2
2022-10-02T05:21:35.003Z,23.2
2022-10-02T05:27:16.159Z,23.2
2022-10-02T05:32:21.847Z,23.1
2022-10-02T05:37:32.772Z,23.2
2022-10-02T05:42:23.315Z,23.1
2022-10-02T05:47:33.466Z,23.1
2022-10-02T05:52:39.683Z,23.1
2022-10-02T05:58:02.783Z,23.1
2022-10-02T06:03:28.534Z,23.1
2022-10-02T06:13:41.692Z,23.1
2022-10-02T06:19:22.980Z,23.1
2022-10-02T06:24:49.415Z,23
2022-10-02T06:30:31.881Z,23.1
2022-10-02T06:35:38.876Z,33.8
2022-10-02T06:41:16.750Z,34.7
2022-10-02T06:46:22.668Z,32.3
2022-10-02T06:51:29.481Z,38.4
2022-10-02T06:56:39.869Z,41.4
2022-10-02T07:01:46.347Z,40.1
2022-10-02T07:07:09.214Z,41.3
2022-10-02T07:12:31.356Z,42.4
2022-10-02T07:18:11.909Z,43.8
2022-10-02T07:24:01.497Z,44.7
2022-10-02T07:29:24.650Z,44.9
2022-10-02T07:34:53.280Z,45.3
2022-10-02T07:40:31.543Z,46.2
2022-10-02T07:46:09.951Z,47.1
2022-10-02T07:51:53.336Z,47.9
2022-10-02T07:57:30.937Z,48.8
2022-10-02T08:03:08.739Z,49.6
2022-10-02T08:08:52.399Z,50.3
2022-10-02T08:14:29.765Z,50.4
2022-10-02T08:20:34.261Z,49.3
2022-10-02T08:25:55.660Z,50.1
2022-10-02T08:31:39.456Z,48.6
2022-10-02T08:37:21.907Z,47.9
2022-10-02T08:42:42.936Z,51.4
2022-10-02T08:48:21.571Z,53.4
2022-10-02T08:53:59.134Z,54.4
2022-10-02T08:59:24.165Z,55.3
2022-10-02T09:04:35.342Z,55.9
2022-10-02T09:09:32.077Z,56.6
2022-10-02T09:14:58.146Z,57.5
2022-10-02T09:20:21.315Z,57.9
2022-10-02T09:25:44.871Z,58.4
2022-10-02T09:30:52.037Z,58.7
2022-10-02T09:36:29.264Z,58.9
2022-10-02T09:42:06.388Z,59.4
2022-10-02T09:47:44.233Z,59.3
2022-10-02T09:53:21.998Z,58.2
2022-10-02T09:58:59.173Z,58.5
2022-10-02T10:05:05.902Z,59.1
2022-10-02T10:10:44.144Z,59.9
2022-10-02T10:16:22.591Z,60.6
2022-10-02T10:22:03.195Z,61.2
2022-10-02T10:27:41.401Z,61.8
2022-10-02T10:33:19.411Z,62.2
2022-10-02T10:38:45.872Z,62.7
2022-10-02T10:44:30.035Z,63
2022-10-02T10:51:40.450Z,62.9
2022-10-02T10:57:21.506Z,62.9
2022-10-02T11:02:49.074Z,63
2022-10-02T11:08:11.002Z,63.7
2022-10-02T11:13:33.143Z,63.3
2022-10-02T11:18:55.442Z,63.6
2022-10-02T11:24:17.671Z,58.2
2022-10-02T11:29:59.721Z,54.7
2022-10-02T11:35:38.081Z,68.5
2022-10-02T11:41:15.370Z,59.3
2022-10-02T11:46:53.128Z,53.2
2022-10-02T11:52:29.900Z,59.1
2022-10-02T11:58:10.011Z,65.5
2022-10-02T12:03:48.565Z,56.6
2022-10-02T12:09:25.922Z,51.1
2022-10-02T12:15:04.740Z,46.8
2022-10-02T12:20:42.070Z,66.8
2022-10-02T12:26:04.098Z,59.8
2022-10-02T12:31:42.086Z,53.6
2022-10-02T12:37:21.725Z,48.7
2022-10-02T12:43:03.744Z,44.9
2022-10-02T12:48:25.900Z,42.1
2022-10-02T12:54:03.264Z,39.9
2022-10-02T12:59:40.339Z,38.1
2022-10-02T13:05:47.252Z,36.4
2022-10-02T13:11:26.427Z,35.1
2022-10-02T13:16:48.287Z,34.1
2022-10-02T13:22:30.500Z,33.2
2022-10-02T13:28:14.898Z,32.4
2022-10-02T13:33:53.763Z,31.7
2022-10-02T13:39:31.813Z,31.1
2022-10-02T13:45:09.934Z,30.6
2022-10-02T13:50:50.807Z,30.1
2022-10-02T13:56:32.175Z,29.8
2022-10-02T14:02:10.801Z,29.4
2022-10-02T14:07:48.283Z,29.1
2022-10-02T14:13:26.131Z,28.8
2022-10-02T14:19:07.710Z,28.6
2022-10-02T14:24:44.926Z,28.4
2022-10-02T14:30:22.556Z,28.2
2022-10-02T14:36:01.548Z,28.1
2022-10-02T14:41:38.787Z,27.9
2022-10-02T14:47:17.494Z,27.8
2022-10-02T14:52:54.529Z,27.6
2022-10-02T15:21:12.678Z,27.2
2022-10-02T15:26:51.016Z,27.2
2022-10-02T15:32:52.816Z,27.1
2022-10-02T15:38:32.575Z,27.1
2022-10-02T15:44:13.713Z,27
2022-10-02T15:49:50.957Z,26.9
2022-10-02T15:55:32.582Z,26.9
2022-10-02T16:01:11.759Z,26.8
2022-10-02T16:06:49.461Z,26.8
2022-10-02T16:12:26.580Z,26.8
2022-10-02T16:18:05.736Z,26.7
2022-10-02T16:25:01.212Z,26.6
2022-10-02T16:30:23.620Z,26.6
2022-10-02T16:35:46.424Z,26.6
2022-10-02T16:41:24.401Z,26.6
2022-10-02T16:47:04.141Z,26.6
2022-10-02T16:52:27.562Z,26.5
2022-10-02T16:58:04.516Z,26.4
2022-10-02T17:04:13.973Z,26.3
2022-10-02T17:09:36.752Z,26.3
2022-10-02T17:15:13.481Z,26.3
2022-10-02T17:20:53.447Z,26.3
2022-10-02T17:26:31.458Z,26.2
2022-10-02T17:32:13.508Z,26.2
2022-10-02T17:37:55.858Z,26.2
2022-10-02T17:43:34.275Z,26.1
2022-10-02T17:49:16.587Z,26.1
2022-10-02T17:55:28.336Z,26.1
2022-10-02T18:01:10.991Z,26
2022-10-02T18:06:32.838Z,26
2022-10-02T18:12:12.137Z,26
2022-10-02T18:17:40.611Z,26
2022-10-02T18:22:47.474Z,25.9
2022-10-02T18:28:09.200Z,25.9
2022-10-02T18:33:57.158Z,25.9
2022-10-02T18:39:33.083Z,25.9
2022-10-02T18:45:11.358Z,25.9
2022-10-02T18:50:37.486Z,25.9
2022-10-02T18:56:19.429Z,25.9
2022-10-02T19:01:42.380Z,25.9
2022-10-02T19:07:21.199Z,25.8
2022-10-02T19:12:58.300Z,25.8
2022-10-02T19:18:39.672Z,25.8
2022-10-02T19:24:18.037Z,25.8
2022-10-02T19:29:40.280Z,25.8
2022-10-02T19:35:17.600Z,25.8
2022-10-02T19:40:46.046Z,25.7
2022-10-02T19:46:29.541Z,25.6
2022-10-02T19:52:07.176Z,25.6
2022-10-02T19:57:34.720Z,25.5
2022-10-02T20:03:13.713Z,25.4
2022-10-02T20:08:39.823Z,25.4
2022-10-02T20:14:05.418Z,25.4
2022-10-02T20:19:42.626Z,25.3
2022-10-02T20:25:19.744Z,25.3
2022-10-02T20:30:57.894Z,25.3
